createdAt,value
2023-03-04T00:00:16.197Z,21.45
2023-03-04T00:02:42.848Z,23.45
2023-03-04T00:05:09.732Z,22.02
2023-03-04T00:07:36.408Z,21.40
2023-03-04T00:10:03.619Z,22.98
2023-03-04T00:12:30.290Z,24.58
2023-03-04T00:14:56.921Z,20.75
2023-03-04T00:17:24.145Z,20.20
2023-03-04T00:19:50.810Z,23.08
2023-03-04T00:22:17.498Z,24.23
2023-03-04T00:24:44.128Z,22.48
2023-03-04T00:27:10.849Z,22.65
2023-03-04T00:29:37.453Z,25.73
2023-03-04T00:32:04.435Z,22.60
2023-03-04T00:34:32.821Z,23.63
2023-03-04T00:37:01.626Z,22.17
2023-03-04T00:39:28.565Z,27.58
2023-03-04T00:41:55.453Z,21.98
2023-03-04T00:44:22.098Z,25.48
2023-03-04T00:46:48.702Z,20.60
2023-03-04T00:49:15.327Z,24.13
2023-03-04T00:51:41.952Z,23.23
2023-03-04T00:54:08.557Z,24.92
2023-03-04T00:56:35.186Z,21.70
2023-03-04T00:59:01.783Z,21.42
2023-03-04T01:01:28.554Z,24.27
2023-03-04T01:03:55.323Z,22.65
2023-03-04T01:06:22.062Z,23.80
2023-03-04T01:08:48.667Z,21.70
2023-03-04T01:11:15.297Z,27.05
2023-03-04T01:13:41.994Z,20.33
2023-03-04T01:16:08.707Z,20.38
2023-03-04T01:18:35.338Z,23.30
2023-03-04T01:21:02.065Z,23.65
2023-03-04T01:23:28.764Z,23.02
2023-03-04T01:25:55.415Z,26.23
2023-03-04T01:28:22.065Z,20.85
2023-03-04T01:30:48.657Z,24.17
2023-03-04T01:33:15.437Z,22.00
2023-03-04T01:35:42.143Z,24.70
2023-03-04T01:38:08.834Z,24.13
2023-03-04T01:40:35.589Z,22.30
2023-03-04T01:43:02.271Z,23.23
2023-03-04T01:45:31.387Z,22.92
2023-03-04T01:47:58.282Z,20.33
2023-03-04T01:50:31.853Z,25.20
2023-03-04T01:52:58.842Z,24.50
2023-03-04T01:55:26.054Z,23.17
2023-03-04T01:57:53.147Z,21.02
2023-03-04T02:00:23.151Z,20.13
2023-03-04T02:02:53.022Z,22.13
2023-03-04T02:05:20.863Z,22.58
2023-03-04T02:07:47.477Z,21.15
2023-03-04T02:10:14.203Z,23.55
2023-03-04T02:12:41.646Z,24.83
2023-03-04T02:15:09.162Z,25.83
2023-03-04T02:17:35.857Z,24.90
2023-03-04T02:20:20.818Z,24.60
2023-03-04T02:23:08.118Z,22.23
2023-03-04T02:25:45.320Z,28.23
2023-03-04T02:28:11.945Z,30.63
2023-03-04T02:30:38.698Z,28.98
2023-03-04T02:33:05.807Z,31.35
2023-03-04T02:35:32.782Z,26.88
2023-03-04T02:37:59.446Z,29.52
2023-03-04T02:40:33.296Z,26.17
2023-03-04T02:43:01.465Z,27.88
2023-03-04T02:45:45.813Z,27.05
2023-03-04T02:48:13.542Z,28.90
2023-03-04T02:50:48.160Z,25.40
2023-03-04T02:53:15.613Z,23.95
2023-03-04T02:55:43.750Z,27.75
2023-03-04T02:58:11.333Z,27.35
2023-03-04T03:00:38.073Z,25.88
2023-03-04T03:03:04.839Z,28.13
2023-03-04T03:05:33.090Z,32.25
2023-03-04T03:08:00.164Z,30.73
2023-03-04T03:10:27.189Z,26.35
2023-03-04T03:12:53.832Z,30.15
2023-03-04T03:15:20.901Z,29.20
2023-03-04T03:17:47.546Z,31.83
2023-03-04T03:20:14.910Z,29.25
2023-03-04T03:22:42.155Z,29.67
2023-03-04T03:25:10.355Z,27.30
2023-03-04T03:27:36.985Z,29.10
2023-03-04T03:30:04.304Z,27.20
2023-03-04T03:32:30.953Z,38.13
2023-03-04T03:34:57.618Z,26.67
2023-03-04T03:37:24.245Z,24.77
2023-03-04T03:39:50.884Z,26.83
2023-03-04T03:42:17.477Z,32.58
2023-03-04T03:44:44.151Z,30.85
2023-03-04T03:47:10.783Z,25.40
2023-03-04T03:49:37.448Z,27.90
2023-03-04T03:52:04.180Z,24.35
2023-03-04T03:54:30.815Z,23.08
2023-03-04T03:56:57.437Z,26.45
2023-03-04T03:59:24.211Z,22.50
2023-03-04T04:01:51.286Z,25.63
2023-03-04T04:04:18.034Z,27.58
2023-03-04T04:06:44.736Z,27.55
2023-03-04T04:09:11.448Z,30.27
2023-03-04T04:11:38.092Z,29.85
2023-03-04T04:14:04.707Z,25.88
2023-03-04T04:16:31.554Z,26.08
2023-03-04T04:18:58.183Z,24.30
2023-03-04T04:21:24.864Z,23.95
2023-03-04T04:23:51.501Z,21.70
2023-03-04T04:26:18.111Z,19.63
2023-03-04T04:28:44.718Z,23.70
2023-03-04T04:31:11.442Z,20.00
2023-03-04T04:33:38.057Z,20.90
2023-03-04T04:36:05.459Z,21.23
2023-03-04T04:38:32.221Z,23.33
2023-03-04T04:40:59.976Z,22.52
2023-03-04T04:43:26.802Z,32.75
2023-03-04T04:45:53.658Z,51.92
2023-03-04T04:48:20.287Z,30.45
2023-03-04T04:50:47.136Z,22.55
2023-03-04T04:53:14.430Z,24.45
2023-03-04T04:55:41.077Z,32.75
2023-03-04T04:58:07.977Z,32.35
2023-03-04T05:00:34.707Z,24.77
2023-03-04T05:03:01.439Z,32.00
2023-03-04T05:05:28.104Z,28.20
2023-03-04T05:07:54.770Z,72.78
2023-03-04T05:10:21.405Z,27.08
2023-03-04T05:12:48.122Z,31.73
2023-03-04T05:15:14.779Z,26.67
2023-03-04T05:17:41.378Z,35.42
2023-03-04T05:20:08.927Z,20.85
2023-03-04T05:22:35.558Z,24.95
2023-03-04T05:25:02.513Z,31.80
2023-03-04T05:27:29.168Z,26.20
2023-03-04T05:29:59.823Z,24.58
2023-03-04T05:32:26.755Z,35.17
2023-03-04T05:34:53.488Z,31.08
2023-03-04T05:37:20.136Z,27.65
2023-03-04T05:39:46.779Z,25.05
2023-03-04T05:42:13.366Z,25.80
2023-03-04T05:44:39.966Z,57.55
2023-03-04T05:47:06.685Z,29.13
2023-03-04T05:49:33.307Z,23.88
2023-03-04T05:51:59.910Z,33.65
2023-03-04T05:54:26.507Z,22.85
2023-03-04T05:56:53.239Z,23.15
2023-03-04T05:59:20.867Z,27.65
2023-03-04T06:01:47.999Z,50.47
2023-03-04T06:04:14.773Z,35.30
2023-03-04T06:06:41.434Z,106.22
2023-03-04T06:09:08.059Z,33.05
2023-03-04T06:11:36.285Z,28.25
2023-03-04T06:14:03.579Z,38.45
2023-03-04T06:16:30.299Z,29.20
2023-03-04T06:18:57.161Z,32.15
2023-03-04T06:21:24.286Z,33.20
2023-03-04T06:23:50.957Z,47.83
2023-03-04T06:26:17.634Z,39.72
2023-03-04T06:28:44.890Z,25.90
2023-03-04T06:31:11.571Z,24.48
2023-03-04T06:33:38.252Z,26.15
2023-03-04T06:36:05.160Z,28.77
2023-03-04T06:38:31.949Z,29.48
2023-03-04T06:41:06.935Z,33.55
2023-03-04T06:43:33.583Z,28.42
2023-03-04T06:46:00.208Z,25.95
2023-03-04T06:48:27.263Z,27.95
2023-03-04T06:50:53.916Z,29.67
2023-03-04T06:53:20.574Z,30.17
2023-03-04T06:55:48.423Z,28.70
2023-03-04T06:58:15.739Z,28.65
2023-03-04T07:00:42.413Z,30.40
2023-03-04T07:03:11.436Z,28.42
2023-03-04T07:05:38.110Z,30.20
2023-03-04T07:08:06.198Z,27.60
2023-03-04T07:10:33.067Z,28.13
2023-03-04T07:12:59.691Z,28.17
2023-03-04T07:15:26.411Z,29.88
2023-03-04T07:17:53.059Z,27.42
2023-03-04T07:20:19.859Z,30.65
2023-03-04T07:22:46.512Z,30.10
2023-03-04T07:25:13.268Z,30.25
2023-03-04T07:27:40.992Z,26.45
2023-03-04T07:30:08.839Z,29.73
2023-03-04T07:32:35.879Z,29.45
2023-03-04T07:35:03.979Z,30.33
2023-03-04T07:37:30.700Z,28.60
2023-03-04T07:39:57.367Z,30.13
2023-03-04T07:42:24.144Z,28.80
2023-03-04T07:44:50.750Z,30.38
2023-03-04T07:47:17.362Z,32.72
2023-03-04T07:49:44.040Z,30.40
2023-03-04T07:52:10.673Z,29.85
2023-03-04T07:54:37.395Z,27.05
2023-03-04T07:57:04.046Z,25.58
2023-03-04T07:59:31.033Z,24.15
2023-03-04T08:01:57.812Z,25.88
2023-03-04T08:04:24.469Z,24.00
2023-03-04T08:06:51.286Z,21.67
2023-03-04T08:09:17.879Z,24.10
2023-03-04T08:11:44.836Z,21.55
2023-03-04T08:14:12.783Z,25.98
2023-03-04T08:16:39.656Z,25.70
2023-03-04T08:19:07.649Z,26.92
2023-03-04T08:21:34.965Z,24.85
2023-03-04T08:24:08.128Z,24.30
2023-03-04T08:26:40.914Z,25.60
2023-03-04T08:29:09.595Z,23.38
2023-03-04T08:31:37.020Z,24.20
2023-03-04T08:34:04.971Z,21.13
2023-03-04T08:36:31.740Z,23.75
2023-03-04T08:38:58.372Z,22.20
2023-03-04T08:41:27.487Z,23.83
2023-03-04T08:43:54.180Z,22.92
2023-03-04T08:46:21.413Z,24.52
2023-03-04T08:48:48.286Z,20.80
2023-03-04T08:51:17.063Z,25.55
2023-03-04T08:53:44.353Z,27.60
2023-03-04T08:56:11.538Z,24.45
2023-03-04T08:58:38.630Z,25.13
2023-03-04T09:01:07.573Z,24.88
2023-03-04T09:03:34.230Z,23.52
2023-03-04T09:06:03.619Z,26.70
2023-03-04T09:08:30.981Z,24.10
2023-03-04T09:10:57.627Z,24.25
2023-03-04T09:13:26.441Z,25.35
2023-03-04T09:15:53.713Z,25.60
2023-03-04T09:18:22.436Z,25.33
2023-03-04T09:20:49.329Z,22.80
2023-03-04T09:23:16.844Z,22.90
2023-03-04T09:25:46.473Z,25.60
2023-03-04T09:28:14.073Z,25.20
2023-03-04T09:30:40.846Z,25.27
2023-03-04T09:33:07.510Z,26.58
2023-03-04T09:35:34.160Z,23.85
2023-03-04T09:38:01.123Z,25.52
2023-03-04T09:40:41.274Z,23.98
2023-03-04T09:43:18.438Z,23.30
2023-03-04T09:45:51.231Z,27.15
2023-03-04T09:48:22.423Z,22.80
2023-03-04T09:51:15.256Z,25.98
2023-03-04T09:53:59.542Z,25.63
2023-03-04T09:56:27.708Z,23.77
2023-03-04T09:59:09.601Z,26.83
2023-03-04T10:01:48.015Z,23.73
2023-03-04T10:04:22.379Z,24.90
2023-03-04T10:06:54.530Z,24.30
2023-03-04T10:09:32.956Z,26.57
2023-03-04T10:12:05.980Z,23.85
2023-03-04T10:14:40.199Z,23.20
2023-03-04T10:17:09.864Z,22.23
2023-03-04T10:19:57.575Z,26.75
2023-03-04T10:22:42.006Z,26.25
2023-03-04T10:25:21.075Z,25.77
2023-03-04T10:28:11.039Z,27.08
2023-03-04T10:30:56.414Z,27.02
2023-03-04T10:33:27.270Z,28.63
2023-03-04T10:35:59.770Z,25.50
2023-03-04T10:38:28.856Z,25.85
2023-03-04T10:40:55.479Z,26.30
2023-03-04T10:43:22.108Z,29.38
2023-03-04T10:45:49.300Z,27.58
2023-03-04T10:48:30.227Z,26.83
2023-03-04T10:51:14.007Z,25.80
2023-03-04T10:53:43.234Z,25.38
2023-03-04T10:56:39.114Z,29.38
2023-03-04T10:59:36.740Z,26.77
2023-03-04T11:02:30.647Z,25.85
2023-03-04T11:05:15.742Z,26.30
2023-03-04T11:07:57.530Z,26.52
2023-03-04T11:10:27.102Z,28.50
2023-03-04T11:12:59.756Z,26.08
2023-03-04T11:15:29.030Z,27.60
2023-03-04T11:18:06.148Z,25.35
2023-03-04T11:20:42.722Z,25.00
2023-03-04T11:23:15.162Z,27.42
2023-03-04T11:25:52.900Z,25.08
2023-03-04T11:28:24.358Z,25.23
2023-03-04T11:30:58.329Z,25.17
2023-03-04T11:33:32.436Z,24.50
2023-03-04T11:36:46.132Z,24.13
2023-03-04T11:39:47.161Z,24.55
2023-03-04T11:42:28.511Z,23.17
2023-03-04T11:44:55.718Z,23.95
2023-03-04T11:47:42.159Z,22.63
2023-03-04T11:50:35.639Z,22.85
2023-03-04T11:53:30.656Z,21.92
2023-03-04T11:56:15.067Z,24.58
2023-03-04T11:58:47.427Z,20.73
2023-03-04T12:01:33.614Z,22.67
2023-03-04T12:04:19.035Z,21.92
2023-03-04T12:07:16.403Z,23.05
2023-03-04T12:10:05.475Z,21.55
2023-03-04T12:13:17.120Z,22.20
2023-03-04T12:16:05.544Z,23.95
2023-03-04T12:19:04.212Z,22.60
2023-03-04T12:21:55.898Z,20.60
2023-03-04T12:24:49.290Z,21.45
2023-03-04T12:27:19.297Z,21.67
2023-03-04T12:30:17.222Z,23.20
2023-03-04T12:33:02.673Z,21.48
2023-03-04T12:35:45.511Z,22.92
2023-03-04T12:38:36.757Z,21.58
2023-03-04T12:41:21.401Z,22.10
2023-03-04T12:43:58.702Z,23.45
2023-03-04T12:46:34.083Z,23.92
2023-03-04T12:49:00.689Z,21.60
2023-03-04T12:51:30.442Z,24.92
2023-03-04T12:54:08.805Z,22.17
2023-03-04T12:57:01.536Z,22.23
2023-03-04T12:59:34.903Z,22.83
2023-03-04T13:02:06.882Z,21.75
2023-03-04T13:05:04.503Z,21.42
2023-03-04T13:07:49.944Z,22.08
2023-03-04T13:10:20.054Z,22.10
2023-03-04T13:12:48.686Z,20.38
2023-03-04T13:15:28.039Z,19.67
2023-03-04T13:18:03.724Z,20.73
2023-03-04T13:20:30.276Z,19.92
2023-03-04T13:23:00.591Z,21.60
2023-03-04T13:25:44.264Z,20.30
2023-03-04T13:28:13.561Z,17.95
2023-03-04T13:30:44.273Z,19.35
2023-03-04T13:33:10.925Z,18.83
2023-03-04T13:35:47.194Z,20.10
2023-03-04T13:38:23.049Z,20.20
2023-03-04T13:41:14.190Z,19.48
2023-03-04T13:43:44.824Z,18.88
2023-03-04T13:46:20.834Z,18.25
2023-03-04T13:48:50.383Z,18.30
2023-03-04T13:51:28.859Z,16.38
2023-03-04T13:53:59.500Z,17.38
2023-03-04T13:56:28.912Z,17.33
2023-03-04T13:59:29.280Z,16.67
2023-03-04T14:02:10.646Z,17.15
2023-03-04T14:04:39.677Z,19.05
2023-03-04T14:07:31.901Z,17.80
2023-03-04T14:10:07.710Z,16.70
2023-03-04T14:12:54.792Z,15.68
2023-03-04T14:15:32.168Z,15.57
2023-03-04T14:18:02.299Z,15.90
2023-03-04T14:20:31.667Z,15.75
2023-03-04T14:23:00.236Z,15.80
2023-03-04T14:25:31.922Z,17.98
2023-03-04T14:28:18.616Z,17.55
2023-03-04T14:30:53.705Z,17.30
2023-03-04T14:33:30.040Z,17.23
2023-03-04T14:36:01.079Z,17.05
2023-03-04T14:38:41.687Z,15.10
2023-03-04T14:41:18.479Z,16.15
2023-03-04T14:44:11.216Z,18.33
2023-03-04T14:46:51.240Z,16.63
2023-03-04T14:49:24.054Z,16.98
2023-03-04T14:51:53.037Z,15.63
2023-03-04T14:54:38.674Z,16.45
2023-03-04T14:57:26.137Z,15.60
2023-03-04T14:59:54.124Z,14.60
2023-03-04T15:02:31.370Z,15.75
2023-03-04T15:05:17.693Z,15.32
2023-03-04T15:07:51.190Z,15.80
2023-03-04T15:10:23.179Z,14.95
2023-03-04T15:12:56.429Z,15.85
2023-03-04T15:18:26.710Z,14.15
2023-03-04T15:20:57.973Z,14.48
2023-03-04T15:23:25.668Z,18.08
2023-03-04T15:25:58.954Z,16.33
2023-03-04T15:28:27.243Z,15.02
2023-03-04T15:30:54.517Z,17.80
2023-03-04T15:33:21.484Z,17.20
2023-03-04T15:36:00.047Z,16.30
2023-03-04T15:38:28.403Z,18.10
2023-03-04T15:40:58.338Z,17.63
2023-03-04T15:43:25.082Z,17.17
2023-03-04T15:45:52.922Z,18.27
2023-03-04T15:48:20.721Z,17.38
2023-03-04T15:51:01.375Z,18.23
2023-03-04T15:53:42.315Z,17.63
2023-03-04T15:56:13.944Z,18.25
2023-03-04T15:58:40.945Z,18.35
2023-03-04T16:01:07.650Z,17.30
2023-03-04T16:03:34.434Z,17.33
2023-03-04T16:06:01.188Z,16.40
2023-03-04T16:08:28.379Z,19.02
2023-03-04T16:10:55.094Z,18.70
2023-03-04T16:13:24.013Z,18.13
2023-03-04T16:15:50.848Z,15.50
2023-03-04T16:18:17.646Z,16.08
2023-03-04T16:20:47.378Z,14.85
2023-03-04T16:23:19.036Z,14.88
2023-03-04T16:25:48.384Z,14.75
2023-03-04T16:28:15.069Z,12.07
2023-03-04T16:30:42.451Z,12.43
2023-03-04T16:33:11.452Z,10.60
2023-03-04T16:35:39.365Z,11.88
2023-03-04T16:38:21.595Z,11.95
2023-03-04T16:40:49.615Z,11.73
2023-03-04T16:43:16.228Z,11.10
2023-03-04T16:45:43.012Z,9.93
2023-03-04T16:48:10.204Z,10.00
2023-03-04T16:50:38.748Z,11.48
2023-03-04T16:53:06.674Z,10.35
2023-03-04T16:55:33.386Z,9.77
2023-03-04T16:58:00.078Z,11.15
2023-03-04T17:00:28.685Z,11.52
2023-03-04T17:03:00.829Z,10.30
2023-03-04T17:05:31.023Z,11.48
2023-03-04T17:07:58.161Z,11.05
2023-03-04T17:10:25.577Z,11.70
2023-03-04T17:12:52.796Z,12.05
2023-03-04T17:15:19.738Z,11.50
2023-03-04T17:17:46.836Z,13.55
2023-03-04T17:20:16.257Z,12.68
2023-03-04T17:22:43.869Z,11.10
2023-03-04T17:25:11.684Z,14.52
2023-03-04T17:27:38.737Z,12.68
2023-03-04T17:30:07.081Z,13.93
2023-03-04T17:32:34.026Z,12.98
2023-03-04T17:35:00.824Z,14.77
2023-03-04T17:37:27.511Z,12.20
2023-03-04T17:39:54.288Z,12.43
2023-03-04T17:42:21.105Z,12.13
2023-03-04T17:44:47.845Z,11.23
2023-03-04T17:47:15.282Z,13.25
2023-03-04T17:49:42.069Z,13.13
2023-03-04T17:52:08.746Z,12.90
2023-03-04T17:54:36.728Z,13.40
2023-03-04T17:57:04.800Z,12.63
2023-03-04T17:59:31.465Z,11.15
2023-03-04T18:01:58.137Z,12.23
2023-03-04T18:04:24.810Z,12.15
2023-03-04T18:06:51.506Z,12.25
2023-03-04T18:09:18.164Z,11.07
2023-03-04T18:11:44.900Z,11.85
2023-03-04T18:14:12.944Z,13.02
2023-03-04T18:16:40.456Z,12.77
2023-03-04T18:19:09.392Z,11.38
2023-03-04T18:21:36.274Z,12.60
2023-03-04T18:24:03.427Z,11.07
2023-03-04T18:26:30.407Z,13.80
2023-03-04T18:28:57.676Z,13.57
2023-03-04T18:31:29.582Z,12.52
2023-03-04T18:33:58.566Z,12.20
2023-03-04T18:36:25.217Z,13.38
2023-03-04T18:38:51.828Z,12.60
2023-03-04T18:41:18.828Z,12.68
2023-03-04T18:43:45.537Z,12.02
2023-03-04T18:46:27.924Z,11.88
2023-03-04T18:48:59.002Z,12.75
2023-03-04T18:51:25.643Z,14.13
2023-03-04T18:53:52.323Z,12.88
2023-03-04T18:56:24.160Z,12.95
2023-03-04T18:58:51.596Z,12.35
2023-03-04T19:01:22.152Z,13.18
2023-03-04T19:03:50.646Z,14.27
2023-03-04T19:06:17.558Z,13.70
2023-03-04T19:08:44.282Z,13.65
2023-03-04T19:11:10.904Z,12.57
2023-03-04T19:13:37.514Z,12.60
2023-03-04T19:16:04.299Z,14.52
2023-03-04T19:18:30.957Z,13.35
2023-03-04T19:21:00.681Z,12.77
2023-03-04T19:23:27.323Z,11.75
2023-03-04T19:25:53.986Z,13.68
2023-03-04T19:28:20.582Z,13.02
2023-03-04T19:30:47.321Z,13.65
2023-03-04T19:33:14.192Z,12.82
2023-03-04T19:35:45.222Z,12.90
2023-03-04T19:38:12.129Z,12.60
2023-03-04T19:40:40.740Z,14.25
2023-03-04T19:43:08.273Z,13.23
2023-03-04T19:45:34.921Z,13.63
2023-03-04T19:48:03.164Z,13.23
2023-03-04T19:50:31.730Z,14.38
2023-03-04T19:52:58.641Z,12.93
2023-03-04T19:55:25.386Z,12.85
2023-03-04T19:57:52.004Z,13.40
2023-03-04T20:00:19.247Z,13.82
2023-03-04T20:02:48.084Z,16.02
2023-03-04T20:05:14.841Z,15.18
2023-03-04T20:07:41.553Z,15.32
2023-03-04T20:10:09.025Z,14.65
2023-03-04T20:12:36.380Z,15.77
2023-03-04T20:15:06.191Z,14.95
2023-03-04T20:17:32.811Z,14.40
2023-03-04T20:19:59.484Z,14.20
2023-03-04T20:22:26.177Z,16.13
2023-03-04T20:24:54.904Z,12.93
2023-03-04T20:27:21.627Z,15.57
2023-03-04T20:29:49.229Z,16.23
2023-03-04T20:32:15.949Z,16.10
2023-03-04T20:34:42.631Z,13.38
2023-03-04T20:37:09.270Z,14.75
2023-03-04T20:39:35.900Z,14.27
2023-03-04T20:42:03.878Z,15.02
2023-03-04T20:44:30.587Z,14.65
2023-03-04T20:46:57.485Z,13.18
2023-03-04T20:49:28.450Z,14.80
2023-03-04T20:52:00.242Z,14.40
2023-03-04T20:54:26.882Z,14.05
2023-03-04T20:56:53.510Z,15.07
2023-03-04T20:59:20.174Z,13.90
2023-03-04T21:01:50.987Z,13.90
2023-03-04T21:04:19.453Z,13.80
2023-03-04T21:06:47.582Z,14.48
2023-03-04T21:09:16.578Z,14.68
2023-03-04T21:11:43.441Z,13.48
2023-03-04T21:14:22.117Z,14.13
2023-03-04T21:16:51.178Z,14.25
2023-03-04T21:19:20.715Z,13.77
2023-03-04T21:21:49.525Z,14.77
2023-03-04T21:24:19.151Z,13.38
2023-03-04T21:26:47.732Z,15.00
2023-03-04T21:29:20.661Z,14.77
2023-03-04T21:31:51.646Z,15.25
2023-03-04T21:34:24.644Z,13.80
2023-03-04T21:36:51.489Z,13.77
2023-03-04T21:39:22.311Z,14.98
2023-03-04T21:41:48.973Z,16.05
2023-03-04T21:44:27.916Z,12.45
2023-03-04T21:47:01.166Z,13.85
2023-03-04T21:49:28.163Z,13.52
2023-03-04T21:51:54.966Z,14.30
2023-03-04T21:54:21.650Z,14.82
2023-03-04T21:56:49.497Z,14.50
2023-03-04T21:59:19.694Z,15.00
2023-03-04T22:01:46.448Z,14.95
2023-03-04T22:04:13.252Z,13.40
2023-03-04T22:06:41.143Z,13.75
2023-03-04T22:09:08.234Z,13.63
2023-03-04T22:11:34.968Z,16.63
2023-03-04T22:14:03.336Z,16.33
2023-03-04T22:16:30.388Z,15.65
2023-03-04T22:18:57.190Z,16.27
2023-03-04T22:21:23.867Z,16.67
2023-03-04T22:23:50.506Z,15.82
2023-03-04T22:26:26.921Z,17.20
2023-03-04T22:28:53.529Z,15.63
2023-03-04T22:31:30.184Z,18.20
2023-03-04T22:33:58.290Z,16.45
2023-03-04T22:36:24.943Z,17.20
2023-03-04T22:38:51.697Z,16.17
2023-03-04T22:41:19.914Z,15.00
2023-03-04T22:43:47.281Z,16.55
2023-03-04T22:46:24.699Z,17.85
2023-03-04T22:48:54.360Z,17.95
2023-03-04T22:51:21.591Z,16.02
2023-03-04T22:53:49.408Z,18.33
2023-03-04T22:56:16.376Z,16.38
2023-03-04T22:58:44.753Z,18.40
2023-03-04T23:01:12.944Z,19.33
2023-03-04T23:03:42.034Z,18.88
2023-03-04T23:06:08.681Z,19.17
2023-03-04T23:08:36.719Z,19.58
2023-03-04T23:11:11.227Z,19.58
2023-03-04T23:13:39.172Z,18.52
2023-03-04T23:16:08.176Z,17.17
2023-03-04T23:18:35.640Z,16.67
2023-03-04T23:21:10.538Z,18.83
2023-03-04T23:23:37.894Z,19.20
2023-03-04T23:26:04.864Z,17.92
2023-03-04T23:28:32.088Z,19.73
2023-03-04T23:30:58.792Z,19.30
2023-03-04T23:33:25.561Z,18.67
2023-03-04T23:35:52.192Z,20.55
2023-03-04T23:38:18.840Z,17.90
2023-03-04T23:40:45.458Z,18.25
2023-03-04T23:43:12.091Z,18.52
2023-03-04T23:45:38.791Z,19.67
2023-03-04T23:48:05.703Z,19.90
2023-03-04T23:50:33.802Z,20.77
2023-03-04T23:53:00.527Z,17.65
2023-03-04T23:55:28.466Z,18.33
2023-03-04T23:57:55.080Z,19.13
